createdAt,value
2023-06-07T00:02:42.347Z,10.70
2023-06-07T00:07:37.395Z,10.23
2023-06-07T00:12:30.138Z,9.87
2023-06-07T00:17:24.180Z,9.40
2023-06-07T00:22:17.522Z,10.07
2023-06-07T00:27:11.522Z,10.00
2023-06-07T00:32:04.388Z,10.77
2023-06-07T00:36:56.998Z,12.13
2023-06-07T00:41:49.618Z,11.67
2023-06-07T00:46:44.095Z,11.40
2023-06-07T00:51:36.902Z,10.37
2023-06-07T00:56:29.931Z,10.30
2023-06-07T01:01:22.687Z,13.10
2023-06-07T01:06:23.131Z,12.03
2023-06-07T01:11:16.136Z,11.77
2023-06-07T01:16:09.867Z,11.37
2023-06-07T01:21:04.883Z,12.17
2023-06-07T01:25:59.700Z,12.23
2023-06-07T01:30:53.770Z,15.47
2023-06-07T01:35:46.830Z,12.77
2023-06-07T01:40:39.981Z,14.70
2023-06-07T01:45:34.494Z,14.30
2023-06-07T01:50:27.113Z,13.97
2023-06-07T01:55:20.191Z,16.03
2023-06-07T02:00:15.735Z,14.53
2023-06-07T02:05:11.865Z,14.57
2023-06-07T02:10:05.590Z,16.80
2023-06-07T02:15:01.372Z,18.40
2023-06-07T02:19:53.993Z,17.97
2023-06-07T02:24:48.637Z,15.00
2023-06-07T02:29:41.303Z,16.93
2023-06-07T02:34:34.337Z,22.03
2023-06-07T02:39:27.528Z,17.37
2023-06-07T02:44:21.485Z,19.40
2023-06-07T02:49:14.110Z,18.60
2023-06-07T02:54:10.801Z,20.90
2023-06-07T02:59:05.145Z,19.90
2023-06-07T03:04:03.648Z,18.83
2023-06-07T03:08:56.290Z,19.93
2023-06-07T03:13:50.866Z,21.07
2023-06-07T03:18:49.004Z,25.37
2023-06-07T03:23:44.145Z,21.70
2023-06-07T03:28:37.180Z,20.40
2023-06-07T03:33:32.213Z,24.83
2023-06-07T03:38:26.245Z,23.00
2023-06-07T03:43:21.971Z,26.03
2023-06-07T03:48:15.203Z,24.70
2023-06-07T03:53:08.118Z,24.43
2023-06-07T03:58:02.323Z,25.43
2023-06-07T04:02:58.957Z,20.37
2023-06-07T04:07:52.215Z,23.53
2023-06-07T04:12:45.661Z,20.20
2023-06-07T04:17:40.224Z,20.53
2023-06-07T04:22:36.585Z,17.37
2023-06-07T04:27:30.790Z,15.83
2023-06-07T04:32:26.346Z,16.00
2023-06-07T04:37:21.482Z,17.43
2023-06-07T04:42:17.520Z,16.77
2023-06-07T04:47:13.344Z,14.50
2023-06-07T04:52:07.745Z,15.07
2023-06-07T04:57:02.282Z,14.70
2023-06-07T05:01:57.118Z,15.47
2023-06-07T05:06:51.668Z,14.13
2023-06-07T05:11:44.466Z,14.50
2023-06-07T05:16:40.975Z,14.37
2023-06-07T05:21:37.513Z,18.80
2023-06-07T05:26:31.375Z,18.30
2023-06-07T05:31:27.285Z,22.03
2023-06-07T05:36:21.267Z,20.50
2023-06-07T05:41:16.378Z,20.80
2023-06-07T05:46:09.177Z,20.30
2023-06-07T05:51:06.632Z,16.20
2023-06-07T05:56:00.970Z,19.47
2023-06-07T06:00:55.680Z,18.00
2023-06-07T06:05:48.330Z,15.27
2023-06-07T06:10:40.998Z,16.70
2023-06-07T06:15:33.763Z,17.70
2023-06-07T06:20:27.815Z,13.47
2023-06-07T06:25:20.600Z,13.57
2023-06-07T06:30:13.719Z,11.67
2023-06-07T06:35:06.900Z,11.80
2023-06-07T06:40:00.879Z,14.37
2023-06-07T06:44:53.538Z,15.03
2023-06-07T06:49:46.377Z,11.40
2023-06-07T06:54:39.129Z,13.77
2023-06-07T06:59:33.065Z,11.23
2023-06-07T07:04:25.816Z,13.10
2023-06-07T07:09:18.482Z,10.47
2023-06-07T07:14:11.131Z,11.43
2023-06-07T07:19:05.176Z,10.13
2023-06-07T07:23:57.869Z,10.03
2023-06-07T07:28:50.758Z,9.90
2023-06-07T07:33:43.530Z,9.93
2023-06-07T07:38:38.522Z,9.07
2023-06-07T07:43:34.085Z,12.93
2023-06-07T07:48:29.291Z,9.23
2023-06-07T07:53:22.004Z,9.90
2023-06-07T07:58:16.200Z,9.00
2023-06-07T08:03:09.956Z,13.90
2023-06-07T08:08:03.785Z,8.80
2023-06-07T08:12:56.453Z,11.00
2023-06-07T08:17:51.650Z,7.83
2023-06-07T08:22:44.787Z,9.23
2023-06-07T08:27:38.825Z,6.83
2023-06-07T08:32:31.618Z,8.43
2023-06-07T08:37:25.832Z,8.00
2023-06-07T08:42:18.735Z,6.80
2023-06-07T08:47:13.634Z,7.37
2023-06-07T08:52:15.410Z,6.10
2023-06-07T08:57:11.869Z,5.97
2023-06-07T09:02:05.035Z,6.10
2023-06-07T09:06:57.853Z,4.63
2023-06-07T09:11:52.795Z,6.03
2023-06-07T09:16:56.514Z,8.23
2023-06-07T09:21:49.293Z,5.60
2023-06-07T09:26:42.018Z,5.40
2023-06-07T09:31:34.742Z,5.53
2023-06-07T09:36:29.439Z,4.53
2023-06-07T09:41:22.259Z,5.80
2023-06-07T09:46:16.434Z,6.93
2023-06-07T09:51:09.717Z,5.53
2023-06-07T09:56:17.729Z,5.17
2023-06-07T10:01:10.507Z,6.93
2023-06-07T10:06:03.521Z,7.40
2023-06-07T10:10:57.196Z,5.27
2023-06-07T10:15:52.475Z,5.13
2023-06-07T10:20:50.864Z,7.07
2023-06-07T10:25:44.042Z,5.70
2023-06-07T10:30:38.501Z,5.30
2023-06-07T10:35:34.017Z,6.20
2023-06-07T10:40:28.113Z,5.30
2023-06-07T10:45:21.278Z,6.43
2023-06-07T10:50:28.888Z,5.30
2023-06-07T10:55:32.509Z,5.70
2023-06-07T11:00:26.734Z,5.17
2023-06-07T11:05:19.421Z,5.20
2023-06-07T11:10:35.919Z,11.40
2023-06-07T11:15:36.599Z,6.30
2023-06-07T11:20:50.994Z,6.53
2023-06-07T11:25:45.030Z,5.63
2023-06-07T11:30:37.958Z,4.93
2023-06-07T11:35:32.449Z,5.10
2023-06-07T11:40:25.137Z,8.90
2023-06-07T11:45:19.219Z,4.83
2023-06-07T11:50:11.864Z,4.67
2023-06-07T11:55:05.850Z,4.97
2023-06-07T11:59:58.682Z,5.03
2023-06-07T12:04:53.036Z,4.47
2023-06-07T12:09:46.432Z,4.60
2023-06-07T12:14:41.097Z,4.47
2023-06-07T12:19:34.432Z,4.90
2023-06-07T12:24:28.457Z,4.90
2023-06-07T12:29:28.850Z,5.00
2023-06-07T12:34:21.546Z,5.90
2023-06-07T12:39:14.516Z,4.53
2023-06-07T12:44:09.212Z,5.80
2023-06-07T12:49:02.212Z,5.60
2023-06-07T12:53:55.037Z,3.83
2023-06-07T12:58:47.696Z,4.57
2023-06-07T13:03:41.858Z,4.10
2023-06-07T13:08:34.580Z,4.20
2023-06-07T13:13:27.225Z,4.03
2023-06-07T13:18:20.000Z,3.90
2023-06-07T13:23:14.181Z,4.70
2023-06-07T13:28:06.875Z,6.70
2023-06-07T13:32:59.585Z,3.80
2023-06-07T13:37:52.357Z,4.87
2023-06-07T13:42:46.389Z,4.70
2023-06-07T13:47:39.207Z,4.03
2023-06-07T13:52:32.566Z,3.73
2023-06-07T13:57:25.215Z,9.20
2023-06-07T14:02:19.538Z,5.13
2023-06-07T14:07:12.465Z,4.40
2023-06-07T14:12:05.595Z,4.20
2023-06-07T14:16:59.265Z,4.20
2023-06-07T14:21:53.245Z,5.43
2023-06-07T14:26:45.940Z,4.17
2023-06-07T14:31:38.674Z,4.10
2023-06-07T14:36:31.599Z,4.33
2023-06-07T14:41:26.198Z,4.80
2023-06-07T14:46:19.129Z,4.50
2023-06-07T14:51:11.975Z,3.90
2023-06-07T14:56:04.901Z,4.83
2023-06-07T15:00:58.924Z,4.60
2023-06-07T15:05:51.592Z,4.80
2023-06-07T15:10:44.273Z,5.40
2023-06-07T15:15:37.493Z,6.00
2023-06-07T15:20:31.634Z,5.03
2023-06-07T15:25:24.707Z,5.57
2023-06-07T15:30:17.410Z,5.00
2023-06-07T15:35:12.744Z,4.53
2023-06-07T15:40:08.486Z,5.50
2023-06-07T15:45:01.479Z,5.10
2023-06-07T15:49:54.241Z,5.30
2023-06-07T15:54:46.914Z,5.07
2023-06-07T15:59:40.923Z,5.37
2023-06-07T16:04:33.662Z,5.20
2023-06-07T16:09:27.603Z,5.00
2023-06-07T16:14:20.540Z,5.37
2023-06-07T16:19:14.564Z,7.03
2023-06-07T16:24:08.543Z,5.10
2023-06-07T16:29:01.268Z,8.43
2023-06-07T16:33:54.060Z,5.33
2023-06-07T16:38:48.239Z,6.00
2023-06-07T16:43:40.924Z,5.70
2023-06-07T16:48:33.567Z,6.50
2023-06-07T16:53:26.269Z,6.33
2023-06-07T16:58:20.201Z,5.53
2023-06-07T17:03:13.043Z,5.40
2023-06-07T17:08:06.268Z,5.23
2023-06-07T17:12:58.887Z,5.50
2023-06-07T17:17:52.997Z,5.27
2023-06-07T17:22:45.716Z,6.10
2023-06-07T17:27:38.504Z,6.43
2023-06-07T17:32:31.281Z,6.13
2023-06-07T17:37:25.369Z,5.70
2023-06-07T17:42:21.770Z,5.20
2023-06-07T17:47:16.847Z,5.43
2023-06-07T17:52:21.757Z,6.03
2023-06-07T17:57:17.293Z,5.50
2023-06-07T18:02:10.860Z,5.07
2023-06-07T18:07:04.037Z,6.93
2023-06-07T18:11:56.847Z,4.77
2023-06-07T18:16:50.921Z,5.20
2023-06-07T18:21:43.862Z,4.90
2023-06-07T18:26:36.484Z,7.90
2023-06-07T18:31:29.105Z,5.43
2023-06-07T18:36:23.177Z,5.60
2023-06-07T18:41:15.840Z,5.10
2023-06-07T18:46:08.508Z,5.60
2023-06-07T18:51:01.219Z,5.23
2023-06-07T18:55:55.284Z,5.53
2023-06-07T19:00:49.641Z,5.73
2023-06-07T19:05:42.359Z,5.30
2023-06-07T19:10:35.036Z,5.63
2023-06-07T19:15:29.064Z,6.83
2023-06-07T19:20:21.737Z,5.27
2023-06-07T19:25:14.438Z,5.50
2023-06-07T19:30:07.876Z,6.73
2023-06-07T19:35:02.581Z,6.50
2023-06-07T19:39:55.434Z,5.93
2023-06-07T19:44:48.046Z,6.37
2023-06-07T19:49:40.800Z,7.93
2023-06-07T19:54:34.926Z,6.10
2023-06-07T19:59:27.536Z,6.03
2023-06-07T20:04:20.458Z,6.63
2023-06-07T20:09:13.133Z,8.50
2023-06-07T20:14:07.231Z,5.93
2023-06-07T20:18:59.956Z,6.87
2023-06-07T20:23:52.671Z,6.53
2023-06-07T20:28:45.411Z,7.00
2023-06-07T20:33:40.188Z,10.90
2023-06-07T20:38:32.862Z,6.90
2023-06-07T20:43:25.667Z,7.10
2023-06-07T20:48:18.339Z,11.33
2023-06-07T20:53:12.398Z,8.60
2023-06-07T20:58:07.827Z,8.80
2023-06-07T21:03:00.674Z,8.90
2023-06-07T21:07:53.427Z,9.33
2023-06-07T21:12:47.408Z,8.50
2023-06-07T21:17:40.534Z,9.90
2023-06-07T21:22:33.203Z,11.53
2023-06-07T21:27:26.422Z,9.63
2023-06-07T21:32:20.395Z,10.70
2023-06-07T21:37:13.258Z,11.00
2023-06-07T21:42:06.314Z,9.67
2023-06-07T21:46:58.991Z,11.30
2023-06-07T21:51:53.117Z,10.00
2023-06-07T21:56:45.704Z,8.90
2023-06-07T22:01:38.447Z,8.90
2023-06-07T22:06:31.400Z,9.33
2023-06-07T22:11:25.441Z,9.83
2023-06-07T22:16:19.873Z,9.80
2023-06-07T22:21:13.858Z,10.53
2023-06-07T22:26:06.687Z,11.60
2023-06-07T22:31:00.755Z,14.07
2023-06-07T22:35:58.067Z,11.10
2023-06-07T22:40:50.694Z,12.70
2023-06-07T22:45:43.315Z,13.10
2023-06-07T22:50:37.883Z,11.23
2023-06-07T22:55:30.660Z,15.50
2023-06-07T23:00:23.461Z,13.50
2023-06-07T23:05:18.011Z,12.37
2023-06-07T23:10:12.134Z,10.50
2023-06-07T23:15:04.998Z,11.90
2023-06-07T23:19:57.584Z,12.70
2023-06-07T23:24:50.474Z,12.10
2023-06-07T23:29:44.517Z,11.07
2023-06-07T23:34:37.143Z,12.00
2023-06-07T23:39:29.780Z,12.50
2023-06-07T23:44:27.083Z,13.27
2023-06-07T23:49:21.593Z,11.47
2023-06-07T23:54:14.247Z,13.10
2023-06-07T23:59:07.656Z,11.20
